createdAt,value
2022-10-17T00:00:35.669Z,13.22
2022-10-17T00:01:35.696Z,13.22
2022-10-17T00:02:35.642Z,13.22
2022-10-17T00:03:35.626Z,13.22
2022-10-17T00:04:35.615Z,13.20
2022-10-17T00:05:35.598Z,13.20
2022-10-17T00:06:35.607Z,13.19
2022-10-17T00:07:35.568Z,13.19
2022-10-17T00:08:35.566Z,13.18
2022-10-17T00:09:35.548Z,13.18
2022-10-17T00:10:35.541Z,13.18
2022-10-17T00:11:35.530Z,13.18
2022-10-17T00:12:35.508Z,13.16
2022-10-17T00:13:35.497Z,13.15
2022-10-17T00:14:35.487Z,13.15
2022-10-17T00:15:35.468Z,13.13
2022-10-17T00:16:35.469Z,13.15
2022-10-17T00:17:35.437Z,13.12
2022-10-17T00:18:35.427Z,13.12
2022-10-17T00:19:35.419Z,13.12
2022-10-17T00:20:35.416Z,13.11
2022-10-17T00:21:35.407Z,13.11
2022-10-17T00:23:35.359Z,13.11
2022-10-17T00:24:35.358Z,13.08
2022-10-17T00:25:35.342Z,13.08
2022-10-17T00:26:35.346Z,13.08
2022-10-17T00:27:35.315Z,13.05
2022-10-17T00:28:35.327Z,13.08
2022-10-17T00:29:35.287Z,13.05
2022-10-17T00:30:35.277Z,13.05
2022-10-17T00:31:35.274Z,13.04
2022-10-17T00:32:35.245Z,13.05
2022-10-17T00:33:35.233Z,13.04
2022-10-17T00:34:35.235Z,13.05
2022-10-17T00:35:35.206Z,13.04
2022-10-17T00:36:35.208Z,13.03
2022-10-17T00:37:35.192Z,13.04
2022-10-17T00:38:35.165Z,13.04
2022-10-17T00:39:35.165Z,13.03
2022-10-17T00:40:35.157Z,13.04
2022-10-17T00:41:35.138Z,13.01
2022-10-17T00:42:35.126Z,13.03
2022-10-17T00:43:35.106Z,13.01
2022-10-17T00:44:35.095Z,13.01
2022-10-17T00:45:35.101Z,13.00
2022-10-17T00:46:35.085Z,13.00
2022-10-17T00:47:35.057Z,13.00
2022-10-17T00:48:35.046Z,13.00
2022-10-17T00:49:35.034Z,13.00
2022-10-17T00:50:35.016Z,13.01
2022-10-17T00:51:35.039Z,13.00
2022-10-17T00:52:34.996Z,12.97
2022-10-17T00:53:34.989Z,12.98
2022-10-17T00:54:34.975Z,12.98
2022-10-17T00:55:34.956Z,12.98
2022-10-17T00:56:34.963Z,12.98
2022-10-17T00:57:34.925Z,12.98
2022-10-17T00:58:34.915Z,12.98
2022-10-17T00:59:34.903Z,12.97
2022-10-17T01:00:34.887Z,12.97
2022-10-17T01:01:34.905Z,12.97
2022-10-17T01:02:34.864Z,12.97
2022-10-17T01:03:34.844Z,12.97
2022-10-17T01:04:34.845Z,12.97
2022-10-17T01:05:34.816Z,12.95
2022-10-17T01:06:34.849Z,12.97
2022-10-17T01:07:37.209Z,12.95
2022-10-17T01:08:34.785Z,12.97
2022-10-17T01:09:34.778Z,12.94
2022-10-17T01:10:34.774Z,12.95
2022-10-17T01:11:34.761Z,12.95
2022-10-17T01:12:34.981Z,12.95
2022-10-17T01:13:34.714Z,12.94
2022-10-17T01:14:34.721Z,12.95
2022-10-17T01:15:34.695Z,12.94
2022-10-17T01:16:34.694Z,12.93
2022-10-17T01:17:34.663Z,12.93
2022-10-17T01:18:34.664Z,12.93
2022-10-17T01:19:34.643Z,12.91
2022-10-17T01:20:34.636Z,12.91
2022-10-17T01:21:34.626Z,12.90
2022-10-17T01:22:34.605Z,12.90
2022-10-17T01:23:34.598Z,12.87
2022-10-17T01:24:34.591Z,12.90
2022-10-17T01:25:34.576Z,12.86
2022-10-17T01:26:34.556Z,12.86
2022-10-17T01:27:34.545Z,12.85
2022-10-17T01:28:34.623Z,12.85
2022-10-17T01:29:34.514Z,12.85
2022-10-17T01:30:34.506Z,12.83
2022-10-17T01:31:34.493Z,12.82
2022-10-17T01:32:34.483Z,12.82
2022-10-17T01:33:34.481Z,12.80
2022-10-17T01:34:34.456Z,12.80
2022-10-17T01:35:34.455Z,12.78
2022-10-17T01:36:34.434Z,12.78
2022-10-17T01:37:34.422Z,12.76
2022-10-17T01:38:34.404Z,12.76
2022-10-17T01:39:36.831Z,12.75
2022-10-17T01:40:34.382Z,12.75
2022-10-17T01:41:34.378Z,12.73
2022-10-17T01:42:34.336Z,12.73
2022-10-17T01:43:34.336Z,12.72
2022-10-17T01:44:34.314Z,12.72
2022-10-17T01:45:34.303Z,12.70
2022-10-17T01:46:34.303Z,12.70
2022-10-17T01:47:34.308Z,12.67
2022-10-17T01:48:34.265Z,12.67
2022-10-17T01:49:34.252Z,12.65
2022-10-17T01:50:34.239Z,12.67
2022-10-17T01:51:34.244Z,12.65
2022-10-17T01:52:34.213Z,12.64
2022-10-17T01:53:34.202Z,12.62
2022-10-17T01:54:34.189Z,12.62
2022-10-17T01:55:34.180Z,12.61
2022-10-17T01:56:34.172Z,12.61
2022-10-17T01:57:34.208Z,12.60
2022-10-17T01:58:34.152Z,12.58
2022-10-17T01:59:34.129Z,12.60
2022-10-17T02:00:34.111Z,12.58
2022-10-17T02:01:34.169Z,12.55
2022-10-17T02:02:34.085Z,12.55
2022-10-17T02:03:34.072Z,12.57
2022-10-17T02:04:34.062Z,12.54
2022-10-17T02:05:34.083Z,12.54
2022-10-17T02:06:34.051Z,12.53
2022-10-17T02:07:34.021Z,12.50
2022-10-17T02:08:34.000Z,12.53
2022-10-17T02:09:33.991Z,12.50
2022-10-17T02:10:33.979Z,12.49
2022-10-17T02:11:33.989Z,12.49
2022-10-17T02:12:33.959Z,12.49
2022-10-17T02:13:33.940Z,12.47
2022-10-17T02:14:33.935Z,12.47
2022-10-17T02:15:33.929Z,12.46
2022-10-17T02:16:33.919Z,12.43
2022-10-17T02:17:33.889Z,12.45
2022-10-17T02:18:33.876Z,12.43
2022-10-17T02:19:33.872Z,12.40
2022-10-17T02:20:33.850Z,12.42
2022-10-17T02:21:33.849Z,12.40
2022-10-17T02:22:33.828Z,12.40
2022-10-17T02:23:33.810Z,12.37
2022-10-17T02:24:33.833Z,12.39
2022-10-17T02:25:33.789Z,12.39
2022-10-17T02:26:33.790Z,12.37
2022-10-17T02:27:33.760Z,12.36
2022-10-17T02:28:33.795Z,12.36
2022-10-17T02:29:33.741Z,12.35
2022-10-17T02:30:33.718Z,12.35
2022-10-17T02:31:33.719Z,12.32
2022-10-17T02:32:33.697Z,12.32
2022-10-17T02:33:33.679Z,12.29
2022-10-17T02:34:33.659Z,12.31
2022-10-17T02:35:33.659Z,12.29
2022-10-17T02:36:33.650Z,12.29
2022-10-17T02:37:33.638Z,12.28
2022-10-17T02:38:33.634Z,12.28
2022-10-17T02:39:33.613Z,12.28
2022-10-17T02:40:33.588Z,12.27
2022-10-17T02:41:33.666Z,12.25
2022-10-17T02:42:33.569Z,12.25
2022-10-17T02:43:33.549Z,12.24
2022-10-17T02:44:33.537Z,12.22
2022-10-17T02:45:33.527Z,12.21
2022-10-17T02:46:33.531Z,12.21
2022-10-17T02:47:33.499Z,12.20
2022-10-17T02:48:33.487Z,12.20
2022-10-17T02:49:33.478Z,12.18
2022-10-17T02:50:33.470Z,12.17
2022-10-17T02:51:33.469Z,12.18
2022-10-17T02:52:33.485Z,12.18
2022-10-17T02:53:33.418Z,12.18
2022-10-17T02:54:33.406Z,12.17
2022-10-17T02:55:33.405Z,12.15
2022-10-17T02:56:33.397Z,12.13
2022-10-17T02:57:33.358Z,12.12
2022-10-17T02:58:40.861Z,12.12
2022-10-17T02:59:40.850Z,12.09
2022-10-17T03:00:40.835Z,12.09
2022-10-17T03:01:33.353Z,12.10
2022-10-17T03:02:33.293Z,12.10
2022-10-17T03:03:33.285Z,12.10
2022-10-17T03:04:33.276Z,12.09
2022-10-17T03:05:33.287Z,12.09
2022-10-17T03:06:33.256Z,12.07
2022-10-17T03:07:33.237Z,12.07
2022-10-17T03:08:33.270Z,12.07
2022-10-17T03:09:33.216Z,12.09
2022-10-17T03:10:33.194Z,12.10
2022-10-17T03:11:33.195Z,12.09
2022-10-17T03:12:33.173Z,12.10
2022-10-17T03:13:35.061Z,12.10
2022-10-17T03:14:33.145Z,12.12
2022-10-17T03:15:33.136Z,12.12
2022-10-17T03:16:33.133Z,12.13
2022-10-17T03:17:33.177Z,12.13
2022-10-17T03:18:33.093Z,12.17
2022-10-17T03:19:33.081Z,12.17
2022-10-17T03:20:33.062Z,12.20
2022-10-17T03:21:33.083Z,12.20
2022-10-17T03:22:33.040Z,12.22
2022-10-17T03:23:33.025Z,12.21
2022-10-17T03:24:33.013Z,12.24
2022-10-17T03:25:33.004Z,12.25
2022-10-17T03:26:33.038Z,12.25
2022-10-17T03:27:33.143Z,12.27
2022-10-17T03:28:32.986Z,12.28
2022-10-17T03:29:32.953Z,12.28
2022-10-17T03:30:32.941Z,12.29
2022-10-17T03:31:32.947Z,12.35
2022-10-17T03:32:32.909Z,12.35
2022-10-17T03:33:32.902Z,12.37
2022-10-17T03:34:32.889Z,12.37
2022-10-17T03:35:32.884Z,12.39
2022-10-17T03:36:32.864Z,12.40
2022-10-17T03:37:33.039Z,12.40
2022-10-17T03:38:32.833Z,12.45
2022-10-17T03:39:32.821Z,12.45
2022-10-17T03:40:32.806Z,12.46
2022-10-17T03:41:32.811Z,12.45
2022-10-17T03:42:32.773Z,12.49
2022-10-17T03:43:32.772Z,12.47
2022-10-17T03:44:32.756Z,12.47
2022-10-17T03:45:32.746Z,12.46
2022-10-17T03:46:32.742Z,12.47
2022-10-17T03:47:32.944Z,12.46
2022-10-17T03:48:32.701Z,12.47
2022-10-17T03:49:32.704Z,12.47
2022-10-17T03:50:32.672Z,12.46
2022-10-17T03:51:32.684Z,12.49
2022-10-17T03:52:32.643Z,12.47
2022-10-17T03:53:32.652Z,12.47
2022-10-17T03:54:32.625Z,12.47
2022-10-17T03:55:32.615Z,12.47
2022-10-17T03:56:32.628Z,12.49
2022-10-17T03:57:32.855Z,12.49
2022-10-17T03:58:32.571Z,12.50
2022-10-17T03:59:32.574Z,12.50
2022-10-17T04:00:32.543Z,12.50
2022-10-17T04:01:32.573Z,12.54
2022-10-17T04:02:32.523Z,12.53
2022-10-17T04:03:32.514Z,12.53
2022-10-17T04:04:32.492Z,12.55
2022-10-17T04:05:32.481Z,12.55
2022-10-17T04:06:32.482Z,12.58
2022-10-17T04:07:32.461Z,12.57
2022-10-17T04:08:32.443Z,12.57
2022-10-17T04:09:32.450Z,12.60
2022-10-17T04:10:32.411Z,12.58
2022-10-17T04:11:32.419Z,12.60
2022-10-17T04:12:32.567Z,12.61
2022-10-17T04:13:32.382Z,12.62
2022-10-17T04:14:32.368Z,12.64
2022-10-17T04:15:32.353Z,12.64
2022-10-17T04:16:32.343Z,12.65
2022-10-17T04:17:37.205Z,12.67
2022-10-17T04:18:33.310Z,12.67
2022-10-17T04:19:32.302Z,12.67
2022-10-17T04:20:32.287Z,12.70
2022-10-17T04:21:32.286Z,12.70
2022-10-17T04:22:32.383Z,12.70
2022-10-17T04:23:32.248Z,12.72
2022-10-17T04:24:32.231Z,12.73
2022-10-17T04:25:34.665Z,12.75
2022-10-17T04:26:32.221Z,12.76
2022-10-17T04:27:32.204Z,12.76
2022-10-17T04:28:32.305Z,12.79
2022-10-17T04:29:32.175Z,12.78
2022-10-17T04:30:32.151Z,12.80
2022-10-17T04:31:32.162Z,12.82
2022-10-17T04:32:32.327Z,12.82
2022-10-17T04:33:32.123Z,12.83
2022-10-17T04:34:32.109Z,12.85
2022-10-17T04:35:32.090Z,12.82
2022-10-17T04:36:32.090Z,12.83
2022-10-17T04:37:32.070Z,12.83
2022-10-17T04:38:32.049Z,12.85
2022-10-17T04:39:32.051Z,12.85
2022-10-17T04:40:32.020Z,12.86
2022-10-17T04:41:32.030Z,12.85
2022-10-17T04:42:32.304Z,12.85
2022-10-17T04:43:31.999Z,12.86
2022-10-17T04:44:31.990Z,12.85
2022-10-17T04:45:31.962Z,12.85
2022-10-17T04:46:31.963Z,12.86
2022-10-17T04:47:31.946Z,12.86
2022-10-17T04:48:31.918Z,12.86
2022-10-17T04:49:31.967Z,12.85
2022-10-17T04:50:31.899Z,12.85
2022-10-17T04:51:31.900Z,12.85
2022-10-17T04:52:32.231Z,12.85
2022-10-17T04:53:31.859Z,12.83
2022-10-17T04:54:31.841Z,12.83
2022-10-17T04:55:31.836Z,12.83
2022-10-17T04:56:31.817Z,12.85
2022-10-17T04:57:31.817Z,12.82
2022-10-17T04:58:31.802Z,12.80
2022-10-17T04:59:31.789Z,12.80
2022-10-17T05:00:31.758Z,12.80
2022-10-17T05:01:31.751Z,12.79
2022-10-17T05:02:32.067Z,12.78
2022-10-17T05:03:31.734Z,12.76
2022-10-17T05:04:31.708Z,12.78
2022-10-17T05:05:31.702Z,12.76
2022-10-17T05:06:31.688Z,12.76
2022-10-17T05:07:31.688Z,12.73
2022-10-17T05:08:31.658Z,12.75
2022-10-17T05:09:31.651Z,12.75
2022-10-17T05:10:31.629Z,12.76
2022-10-17T05:11:31.631Z,12.78
2022-10-17T05:12:32.017Z,12.79
2022-10-17T05:13:31.605Z,12.78
2022-10-17T05:14:31.659Z,12.80
2022-10-17T05:15:31.577Z,12.79
2022-10-17T05:16:31.557Z,12.82
2022-10-17T05:17:31.570Z,12.80
2022-10-17T05:18:31.535Z,12.83
2022-10-17T05:19:31.547Z,12.82
2022-10-17T05:20:31.497Z,12.83
2022-10-17T05:22:31.724Z,12.85
2022-10-17T05:23:31.471Z,12.85
2022-10-17T05:24:31.446Z,12.86
2022-10-17T05:25:31.445Z,12.86
2022-10-17T05:26:31.427Z,12.86
2022-10-17T05:27:31.427Z,12.87
2022-10-17T05:28:31.462Z,12.90
2022-10-17T05:29:31.386Z,12.91
2022-10-17T05:30:35.159Z,12.91
2022-10-17T05:31:32.362Z,12.91
2022-10-17T05:32:31.730Z,12.91
2022-10-17T05:33:31.331Z,12.91
2022-10-17T05:34:31.325Z,12.93
2022-10-17T05:35:31.305Z,12.94
2022-10-17T05:36:31.298Z,12.94
2022-10-17T05:37:31.290Z,12.94
2022-10-17T05:38:31.269Z,12.93
2022-10-17T05:39:31.262Z,12.93
2022-10-17T05:40:31.245Z,12.95
2022-10-17T05:41:31.233Z,12.95
2022-10-17T05:42:31.692Z,12.95
2022-10-17T05:43:31.206Z,12.98
2022-10-17T05:44:31.197Z,13.00
2022-10-17T05:45:31.185Z,12.98
2022-10-17T05:46:31.179Z,12.98
2022-10-17T05:47:31.557Z,12.98
2022-10-17T05:48:31.153Z,13.01
2022-10-17T05:49:40.061Z,13.01
2022-10-17T05:50:32.114Z,13.01
2022-10-17T05:51:31.131Z,13.03
2022-10-17T05:52:31.382Z,13.04
2022-10-17T05:53:31.070Z,13.04
2022-10-17T05:54:31.069Z,13.04
2022-10-17T05:55:31.046Z,13.05
2022-10-17T05:56:31.045Z,13.08
2022-10-17T05:57:31.035Z,13.05
2022-10-17T05:59:31.986Z,13.09
2022-10-17T06:00:30.989Z,13.09
2022-10-17T06:01:31.017Z,13.09
2022-10-17T06:02:31.374Z,13.08
2022-10-17T06:03:30.938Z,13.09
2022-10-17T06:04:30.944Z,13.08
2022-10-17T06:05:30.912Z,13.09
2022-10-17T06:06:30.906Z,13.11
2022-10-17T06:07:30.904Z,13.12
2022-10-17T06:08:30.875Z,13.12
2022-10-17T06:09:30.866Z,13.12
2022-10-17T06:10:30.864Z,13.11
2022-10-17T06:11:30.834Z,13.12
2022-10-17T06:12:31.207Z,13.12
2022-10-17T06:13:30.804Z,13.13
2022-10-17T06:14:30.802Z,13.13
2022-10-17T06:15:30.785Z,13.13
2022-10-17T06:16:30.774Z,13.15
2022-10-17T06:17:30.814Z,13.16
2022-10-17T06:18:30.751Z,13.16
2022-10-17T06:19:30.755Z,13.18
2022-10-17T06:20:30.722Z,13.19
2022-10-17T06:21:30.730Z,13.19
2022-10-17T06:22:31.154Z,13.20
2022-10-17T06:23:30.674Z,13.23
2022-10-17T06:24:30.671Z,13.23
2022-10-17T06:25:30.655Z,13.28
2022-10-17T06:26:30.653Z,13.31
2022-10-17T06:27:30.642Z,13.39
2022-10-17T06:28:30.642Z,13.46
2022-10-17T06:29:30.610Z,13.50
2022-10-17T06:30:30.593Z,13.52
2022-10-17T06:31:30.574Z,13.53
2022-10-17T06:32:30.756Z,13.56
2022-10-17T06:33:30.543Z,13.54
2022-10-17T06:34:30.541Z,13.54
2022-10-17T06:35:30.519Z,13.54
2022-10-17T06:36:30.514Z,13.54
2022-10-17T06:37:32.298Z,13.53
2022-10-17T06:39:41.440Z,13.56
2022-10-17T06:40:41.418Z,13.56
2022-10-17T06:41:41.404Z,13.54
2022-10-17T06:42:41.409Z,13.57
2022-10-17T06:43:41.381Z,13.56
2022-10-17T06:44:41.367Z,13.57
2022-10-17T06:45:41.352Z,13.57
2022-10-17T06:46:41.338Z,13.57
2022-10-17T06:47:41.344Z,13.59
2022-10-17T06:48:41.308Z,13.59
2022-10-17T06:49:41.298Z,13.60
2022-10-17T06:50:41.304Z,13.63
2022-10-17T06:51:41.267Z,13.62
2022-10-17T06:52:41.300Z,13.65
2022-10-17T06:53:41.253Z,13.68
2022-10-17T06:54:41.244Z,13.71
2022-10-17T06:55:41.215Z,13.72
2022-10-17T06:56:41.210Z,13.72
2022-10-17T06:57:41.207Z,13.74
2022-10-17T06:58:41.188Z,13.75
2022-10-17T06:59:41.158Z,13.78
2022-10-17T07:00:41.326Z,13.79
2022-10-17T07:01:43.187Z,13.81
2022-10-17T07:02:42.138Z,13.83
2022-10-17T07:03:41.137Z,13.87
2022-10-17T07:04:41.098Z,13.90
2022-10-17T07:05:41.101Z,13.95
2022-10-17T07:06:41.069Z,14.00
2022-10-17T07:07:43.152Z,14.03
2022-10-17T07:08:41.051Z,14.05
2022-10-17T07:09:41.026Z,14.08
2022-10-17T07:10:41.053Z,14.10
2022-10-17T07:11:40.996Z,14.14
2022-10-17T07:12:41.008Z,14.17
2022-10-17T07:13:40.979Z,14.20
2022-10-17T07:14:40.968Z,14.26
2022-10-17T07:15:40.946Z,14.30
2022-10-17T07:16:40.966Z,14.36
2022-10-17T07:17:40.926Z,14.44
2022-10-17T07:18:40.922Z,14.53
2022-10-17T07:19:40.899Z,14.60
2022-10-17T07:20:40.886Z,14.69
2022-10-17T07:21:40.874Z,14.77
2022-10-17T07:22:40.876Z,14.86
2022-10-17T07:23:40.855Z,14.94
2022-10-17T07:24:40.854Z,15.02
2022-10-17T07:25:40.819Z,15.11
2022-10-17T07:26:40.858Z,15.19
2022-10-17T07:27:40.805Z,15.25
2022-10-17T07:28:40.815Z,15.33
2022-10-17T07:29:40.757Z,15.39
2022-10-17T07:30:40.757Z,15.44
2022-10-17T07:31:40.748Z,15.51
2022-10-17T07:32:40.746Z,15.54
2022-10-17T07:33:40.735Z,15.57
2022-10-17T07:34:40.707Z,15.59
2022-10-17T07:35:40.686Z,15.61
2022-10-17T07:36:40.686Z,15.62
2022-10-17T07:37:40.677Z,15.65
2022-10-17T07:38:40.659Z,15.65
2022-10-17T07:39:40.634Z,15.67
2022-10-17T07:40:40.624Z,15.67
2022-10-17T07:41:40.605Z,15.70
2022-10-17T07:42:40.662Z,15.68
2022-10-17T07:43:40.586Z,15.70
2022-10-17T07:44:40.565Z,15.72
2022-10-17T07:45:40.548Z,15.72
2022-10-17T07:46:40.559Z,15.73
2022-10-17T07:47:40.537Z,15.73
2022-10-17T07:48:40.528Z,15.76
2022-10-17T07:49:40.497Z,15.76
2022-10-17T07:50:40.485Z,15.79
2022-10-17T07:51:40.540Z,15.79
2022-10-17T07:52:40.474Z,15.80
2022-10-17T07:53:42.678Z,15.84
2022-10-17T07:54:40.426Z,15.90
2022-10-17T07:55:40.434Z,15.94
2022-10-17T07:56:40.402Z,15.95
2022-10-17T07:57:40.386Z,15.98
2022-10-17T07:58:40.394Z,16.01
2022-10-17T07:59:40.367Z,16.08
2022-10-17T08:00:40.456Z,16.15
2022-10-17T08:01:40.336Z,16.24
2022-10-17T08:02:40.325Z,16.28
2022-10-17T08:03:40.316Z,16.31
2022-10-17T08:04:40.310Z,16.32
2022-10-17T08:05:40.286Z,16.38
2022-10-17T08:06:40.290Z,16.49
2022-10-17T08:07:40.255Z,16.57
2022-10-17T08:08:40.259Z,16.64
2022-10-17T08:09:40.237Z,16.69
2022-10-17T08:10:40.231Z,16.79
2022-10-17T08:11:40.204Z,16.89
2022-10-17T08:12:40.187Z,16.97
2022-10-17T08:13:40.191Z,17.09
2022-10-17T08:14:40.166Z,17.20
2022-10-17T08:15:40.149Z,17.30
2022-10-17T08:16:40.135Z,17.41
2022-10-17T08:17:40.117Z,17.48
2022-10-17T08:18:40.128Z,17.52
2022-10-17T08:19:40.107Z,17.59
2022-10-17T08:20:40.087Z,17.64
2022-10-17T08:21:40.065Z,17.67
2022-10-17T08:22:40.064Z,17.70
2022-10-17T08:23:40.093Z,17.74
2022-10-17T08:24:40.051Z,17.78
2022-10-17T08:25:40.031Z,17.82
2022-10-17T08:26:42.458Z,17.85
2022-10-17T08:27:39.986Z,17.87
2022-10-17T08:28:40.098Z,17.92
2022-10-17T08:29:39.956Z,17.97
2022-10-17T08:30:39.947Z,18.03
2022-10-17T08:31:39.935Z,18.08
2022-10-17T08:32:39.925Z,18.10
2022-10-17T08:33:39.960Z,18.15
2022-10-17T08:34:39.905Z,18.20
2022-10-17T08:35:39.880Z,18.25
2022-10-17T08:36:39.866Z,18.31
2022-10-17T08:37:39.855Z,18.35
2022-10-17T08:38:43.057Z,18.37
2022-10-17T08:39:39.825Z,18.41
2022-10-17T08:40:39.820Z,18.45
2022-10-17T08:41:39.805Z,18.45
2022-10-17T08:42:39.793Z,18.47
2022-10-17T08:43:39.788Z,18.50
2022-10-17T08:44:39.756Z,18.52
2022-10-17T08:45:39.829Z,18.56
2022-10-17T08:46:39.742Z,18.62
2022-10-17T08:47:39.719Z,18.71
2022-10-17T08:48:42.741Z,18.77
2022-10-17T08:49:40.697Z,18.86
2022-10-17T08:50:39.698Z,18.93
2022-10-17T08:51:39.674Z,18.99
2022-10-17T08:52:39.661Z,19.04
2022-10-17T08:53:39.664Z,19.08
2022-10-17T08:54:39.627Z,19.11
2022-10-17T08:55:42.748Z,19.14
2022-10-17T08:56:55.831Z,19.19
2022-10-17T08:57:40.592Z,19.26
2022-10-17T08:58:39.586Z,19.33
2022-10-17T08:59:39.559Z,19.40
2022-10-17T09:00:39.559Z,19.49
2022-10-17T09:01:39.537Z,19.55
2022-10-17T09:02:39.584Z,19.63
2022-10-17T09:03:39.516Z,19.66
2022-10-17T09:04:39.498Z,19.71
2022-10-17T09:05:39.479Z,19.74
2022-10-17T09:06:39.476Z,19.84
2022-10-17T09:07:39.446Z,19.92
2022-10-17T09:08:39.459Z,19.96
2022-10-17T09:09:39.429Z,20.04
2022-10-17T09:10:39.416Z,20.09
2022-10-17T09:11:39.405Z,20.18
2022-10-17T09:12:39.406Z,20.24
2022-10-17T09:13:39.397Z,20.28
2022-10-17T09:14:39.368Z,20.34
2022-10-17T09:15:39.347Z,20.39
2022-10-17T09:16:39.337Z,20.43
2022-10-17T09:17:39.328Z,20.51
2022-10-17T09:18:39.330Z,20.59
2022-10-17T09:19:39.297Z,20.65
2022-10-17T09:20:39.287Z,20.69
2022-10-17T09:21:39.268Z,20.74
2022-10-17T09:22:39.257Z,20.75
2022-10-17T09:23:41.815Z,20.78
2022-10-17T09:24:39.419Z,20.81
2022-10-17T09:25:39.217Z,20.87
2022-10-17T09:26:39.223Z,20.92
2022-10-17T09:27:39.187Z,20.96
2022-10-17T09:28:39.239Z,21.02
2022-10-17T09:29:43.688Z,21.05
2022-10-17T09:30:46.779Z,21.07
2022-10-17T09:31:40.136Z,21.11
2022-10-17T09:32:39.129Z,21.12
2022-10-17T09:33:55.233Z,21.17
2022-10-17T09:34:40.098Z,21.18
2022-10-17T09:35:39.085Z,21.22
2022-10-17T09:36:39.077Z,21.24
2022-10-17T09:37:39.057Z,21.27
2022-10-17T09:38:39.084Z,21.30
2022-10-17T09:39:39.039Z,21.33
2022-10-17T09:40:39.019Z,21.36
2022-10-17T09:41:45.575Z,21.42
2022-10-17T09:42:39.998Z,21.45
2022-10-17T09:43:38.996Z,21.46
2022-10-17T09:44:38.969Z,21.54
2022-10-17T09:45:38.948Z,21.55
2022-10-17T09:46:38.947Z,21.60
2022-10-17T09:47:39.111Z,21.64
2022-10-17T09:48:38.937Z,21.67
2022-10-17T09:49:38.889Z,21.73
2022-10-17T09:50:38.889Z,21.76
2022-10-17T09:51:38.869Z,21.77
2022-10-17T09:52:38.859Z,21.82
2022-10-17T09:53:38.858Z,21.80
2022-10-17T09:54:38.831Z,21.82
2022-10-17T09:55:38.811Z,21.83
2022-10-17T09:56:38.802Z,21.82
2022-10-17T09:57:38.803Z,21.82
2022-10-17T09:58:38.798Z,21.83
2022-10-17T09:59:38.758Z,21.85
2022-10-17T10:00:38.830Z,21.88
2022-10-17T10:01:38.740Z,21.89
2022-10-17T10:02:38.722Z,21.92
2022-10-17T10:03:38.722Z,21.92
2022-10-17T10:04:59.676Z,21.96
2022-10-17T10:05:39.682Z,21.98
2022-10-17T10:06:38.671Z,21.98
2022-10-17T10:07:38.660Z,22.00
2022-10-17T10:08:38.659Z,22.04
2022-10-17T10:09:40.182Z,22.07
2022-10-17T10:10:38.612Z,22.10
2022-10-17T10:11:38.610Z,22.13
2022-10-17T10:12:38.601Z,22.17
2022-10-17T10:13:38.589Z,22.18
2022-10-17T10:14:38.561Z,22.22
2022-10-17T10:15:38.551Z,22.28
2022-10-17T10:16:38.535Z,22.28
2022-10-17T10:17:38.526Z,22.32
2022-10-17T10:18:48.712Z,22.33
2022-10-17T10:19:46.003Z,22.36
2022-10-17T10:20:38.483Z,22.43
2022-10-17T10:21:38.471Z,22.45
2022-10-17T10:22:38.452Z,22.50
2022-10-17T10:23:38.461Z,22.55
2022-10-17T10:24:38.424Z,22.59
2022-10-17T10:25:38.415Z,22.65
2022-10-17T10:26:38.405Z,22.69
2022-10-17T10:27:38.421Z,22.73
2022-10-17T10:28:38.439Z,22.75
2022-10-17T10:29:38.365Z,22.78
2022-10-17T10:30:39.966Z,22.78
2022-10-17T10:31:38.351Z,22.81
2022-10-17T10:32:38.325Z,22.81
2022-10-17T10:33:41.491Z,22.80
2022-10-17T10:34:38.293Z,22.80
2022-10-17T10:35:38.286Z,22.76
2022-10-17T10:36:38.268Z,22.73
2022-10-17T10:37:38.257Z,22.69
2022-10-17T10:38:38.253Z,22.68
2022-10-17T10:39:38.232Z,22.66
2022-10-17T10:40:38.214Z,22.65
2022-10-17T10:41:38.195Z,22.63
2022-10-17T10:42:38.184Z,22.62
2022-10-17T10:43:38.187Z,22.60
2022-10-17T10:44:38.156Z,22.63
2022-10-17T10:45:53.589Z,22.68
2022-10-17T10:46:39.128Z,22.72
2022-10-17T10:47:38.138Z,22.80
2022-10-17T10:48:38.124Z,22.87
2022-10-17T10:49:38.095Z,22.94
2022-10-17T10:50:40.571Z,22.98
2022-10-17T10:51:39.067Z,23.00
2022-10-17T10:52:38.045Z,23.02
2022-10-17T10:53:38.054Z,23.05
2022-10-17T10:55:38.019Z,23.05
2022-10-17T10:56:38.007Z,23.06
2022-10-17T10:57:37.985Z,23.09
2022-10-17T10:58:41.802Z,23.12
2022-10-17T10:59:37.960Z,23.13
2022-10-17T11:00:37.986Z,23.17
2022-10-17T11:01:37.975Z,23.21
2022-10-17T11:02:37.918Z,23.23
2022-10-17T11:03:37.987Z,23.25
2022-10-17T11:04:38.002Z,23.25
2022-10-17T11:05:37.883Z,23.25
2022-10-17T11:06:37.879Z,23.27
2022-10-17T11:07:37.855Z,23.25
2022-10-17T11:08:37.854Z,23.27
2022-10-17T11:09:37.827Z,23.25
2022-10-17T11:10:37.810Z,23.25
2022-10-17T11:11:37.825Z,23.24
2022-10-17T11:12:37.819Z,23.25
2022-10-17T11:13:37.787Z,23.25
2022-10-17T11:14:37.758Z,23.24
2022-10-17T11:15:37.756Z,23.24
2022-10-17T11:16:37.737Z,23.24
2022-10-17T11:17:37.720Z,23.24
2022-10-17T11:18:37.743Z,23.21
2022-10-17T11:19:37.696Z,23.24
2022-10-17T11:20:37.677Z,23.24
2022-10-17T11:21:37.683Z,23.24
2022-10-17T11:22:37.647Z,23.27
2022-10-17T11:23:37.656Z,23.31
2022-10-17T11:24:37.620Z,23.34
2022-10-17T11:25:37.628Z,23.37
2022-10-17T11:26:37.597Z,23.36
2022-10-17T11:27:37.598Z,23.39
2022-10-17T11:28:37.607Z,23.40
2022-10-17T11:29:37.561Z,23.40
2022-10-17T11:30:37.561Z,23.41
2022-10-17T11:31:37.529Z,23.44
2022-10-17T11:32:37.530Z,23.43
2022-10-17T11:33:37.518Z,23.46
2022-10-17T11:34:37.492Z,23.44
2022-10-17T11:35:37.485Z,23.46
2022-10-17T11:36:37.461Z,23.48
2022-10-17T11:37:37.458Z,23.48
2022-10-17T11:38:37.449Z,23.55
2022-10-17T11:39:37.503Z,23.55
2022-10-17T11:40:37.420Z,23.63
2022-10-17T11:41:37.400Z,23.69
2022-10-17T11:42:37.381Z,23.71
2022-10-17T11:43:37.387Z,23.73
2022-10-17T11:44:37.359Z,23.74
2022-10-17T11:45:37.347Z,23.78
2022-10-17T11:46:37.335Z,23.81
2022-10-17T11:47:37.332Z,23.84
2022-10-17T11:48:37.310Z,23.83
2022-10-17T11:49:40.689Z,23.86
2022-10-17T11:52:55.553Z,23.92
2022-10-17T11:53:38.251Z,23.93
2022-10-17T11:54:37.230Z,23.95
2022-10-17T11:55:37.210Z,23.99
2022-10-17T11:56:41.806Z,24.03
2022-10-17T11:57:38.196Z,24.06
2022-10-17T11:58:37.563Z,24.10
2022-10-17T11:59:37.162Z,24.13
2022-10-17T12:00:39.315Z,24.17
2022-10-17T12:01:38.100Z,24.20
2022-10-17T12:02:37.123Z,24.26
2022-10-17T12:03:37.123Z,24.29
2022-10-17T12:04:37.102Z,24.29
2022-10-17T12:05:37.094Z,24.33
2022-10-17T12:06:37.070Z,24.35
2022-10-17T12:07:37.116Z,24.36
2022-10-17T12:08:37.062Z,24.38
2022-10-17T12:09:37.033Z,24.35
2022-10-17T12:10:37.014Z,24.33
2022-10-17T12:11:37.009Z,24.32
2022-10-17T12:12:36.992Z,24.33
2022-10-17T12:13:36.994Z,24.35
2022-10-17T12:14:36.967Z,24.35
2022-10-17T12:15:36.959Z,24.36
2022-10-17T12:16:36.984Z,24.35
2022-10-17T12:17:36.939Z,24.39
2022-10-17T12:18:36.924Z,24.43
2022-10-17T12:19:36.902Z,24.45
2022-10-17T12:20:36.895Z,24.47
2022-10-17T12:21:37.365Z,24.50
2022-10-17T12:22:36.853Z,24.48
2022-10-17T12:23:36.865Z,24.48
2022-10-17T12:24:36.833Z,24.45
2022-10-17T12:25:36.858Z,24.43
2022-10-17T12:26:36.804Z,24.42
2022-10-17T12:27:36.804Z,24.39
2022-10-17T12:28:36.850Z,24.38
2022-10-17T12:29:36.785Z,24.35
2022-10-17T12:30:36.753Z,24.35
2022-10-17T12:31:36.751Z,24.32
2022-10-17T12:33:00.508Z,24.30
2022-10-17T12:33:37.735Z,24.29
2022-10-17T12:34:36.743Z,24.26
2022-10-17T12:35:36.694Z,24.23
2022-10-17T12:36:36.674Z,24.20
2022-10-17T12:37:36.666Z,24.17
2022-10-17T12:38:36.664Z,24.17
2022-10-17T12:39:36.639Z,24.14
2022-10-17T12:40:36.615Z,24.13
2022-10-17T12:41:36.616Z,24.13
2022-10-17T12:42:36.595Z,24.08
2022-10-17T12:43:36.611Z,24.08
2022-10-17T12:44:36.566Z,24.05
2022-10-17T12:45:36.559Z,24.06
2022-10-17T12:46:36.543Z,24.03
2022-10-17T12:47:36.532Z,24.03
2022-10-17T12:48:36.533Z,24.02
2022-10-17T12:49:36.505Z,24.01
2022-10-17T12:50:38.120Z,23.99
2022-10-17T12:51:37.922Z,23.98
2022-10-17T12:52:36.466Z,23.98
2022-10-17T12:53:36.478Z,23.98
2022-10-17T12:54:47.058Z,23.98
2022-10-17T12:55:37.425Z,23.99
2022-10-17T12:56:36.564Z,24.01
2022-10-17T12:57:36.407Z,23.99
2022-10-17T12:58:36.397Z,23.96
2022-10-17T12:59:36.380Z,23.96